Time;durP1;ratioP1;P1;durP2;ratioP2;P2;SDS_P1;SDS_P2;PMS_P1;PMS_P2;Temp;Humidity;BMP_temperature;BMP_pressure;BME280_temperature;BME280_humidity;BME280_pressure;Samples;Min_cycle;Max_cycle;Signal;HPM_P1;HPM_P2
2021/03/31 00:02:20;;;;;;;0.17;0.17;;;;;;;;;;5068205;28;20194;-75
2021/03/31 00:04:47;;;;;;;1.20;1.17;;;;;;;;;;5069390;28;20204;-76
2021/03/31 00:07:13;;;;;;;0.40;0.40;;;;;;;;;;5069422;28;20157;-76
2021/03/31 00:09:40;;;;;;;0.38;0.38;;;;;;;;;;5069437;28;20161;-75
2021/03/31 00:12:07;;;;;;;0.17;0.13;;;;;;;;;;5069399;28;20212;-75
2021/03/31 00:14:34;;;;;;;0.05;0.05;;;;;;;;;;5069290;28;20196;-75
2021/03/31 00:17:01;;;;;;;0.20;0.20;;;;;;;;;;5069491;28;20220;-76
2021/03/31 00:19:27;;;;;;;0.25;0.25;;;;;;;;;;5069166;28;20192;-75
2021/03/31 00:21:53;;;;;;;0.20;0.20;;;;;;;;;;5069380;28;20187;-75
2021/03/31 00:24:19;;;;;;;0.50;0.50;;;;;;;;;;5069162;28;20279;-75
2021/03/31 00:26:46;;;;;;;0.10;0.10;;;;;;;;;;5069196;28;20172;-75
2021/03/31 00:29:12;;;;;;;0.15;0.15;;;;;;;;;;5067164;28;20190;-75
2021/03/31 00:31:38;;;;;;;0.20;0.20;;;;;;;;;;5067976;28;20597;-75
2021/03/31 00:34:04;;;;;;;0.20;0.20;;;;;;;;;;5069192;28;20196;-74
2021/03/31 00:36:30;;;;;;;0.25;0.25;;;;;;;;;;5069184;28;20200;-75
2021/03/31 00:38:57;;;;;;;0.10;0.10;;;;;;;;;;5069030;28;20189;-75
2021/03/31 00:41:23;;;;;;;0.15;0.15;;;;;;;;;;5069207;28;20161;-75
2021/03/31 00:43:49;;;;;;;0.68;0.68;;;;;;;;;;5068991;28;20224;-75
2021/03/31 00:46:15;;;;;;;0.10;0.10;;;;;;;;;;5069108;28;20160;-75
2021/03/31 00:48:41;;;;;;;0.20;0.20;;;;;;;;;;5069537;28;20168;-74
2021/03/31 00:51:08;;;;;;;1.25;0.93;;;;;;;;;;5089132;28;20172;-75
2021/03/31 00:53:36;;;;;;;0.20;0.20;;;;;;;;;;5088991;28;20199;-75
2021/03/31 00:56:03;;;;;;;0.52;0.52;;;;;;;;;;5089034;28;20175;-76
2021/03/31 00:58:29;;;;;;;0.90;0.73;;;;;;;;;;5089025;28;20191;-75
2021/03/31 01:00:56;;;;;;;1.23;1.13;;;;;;;;;;5070929;28;20183;-75
2021/03/31 01:03:22;;;;;;;2.05;0.85;;;;;;;;;;5088969;28;20179;-75
2021/03/31 01:05:48;;;;;;;0.68;0.68;;;;;;;;;;5088976;28;20164;-75
2021/03/31 01:08:15;;;;;;;0.65;0.65;;;;;;;;;;5070961;28;20195;-75
2021/03/31 01:10:43;;;;;;;0.43;0.43;;;;;;;;;;5070875;28;20176;-75
2021/03/31 01:13:12;;;;;;;3.40;2.28;;;;;;;;;;5088728;28;20160;-75
2021/03/31 01:16:04;;;;;;;0.00;0.00;;;;;;;;;;5088939;28;20160;-75
2021/03/31 01:18:30;;;;;;;0.73;0.43;;;;;;;;;;5050882;28;20219;-75
2021/03/31 01:21:15;;;;;;;0.55;0.55;;;;;;;;;;5070642;28;20168;-76
2021/03/31 01:24:00;;;;;;;0.35;0.32;;;;;;;;;;5070765;28;20196;-75
2021/03/31 01:26:45;;;;;;;5.72;1.75;;;;;;;;;;5070767;28;20168;-75
2021/03/31 01:29:23;;;;;;;0.10;0.10;;;;;;;;;;5070808;28;20164;-75
2021/03/31 01:32:04;;;;;;;0.28;0.28;;;;;;;;;;5088666;28;20164;-76
2021/03/31 01:34:32;;;;;;;3.28;0.70;;;;;;;;;;5070663;28;20202;-74
2021/03/31 01:37:01;;;;;;;0.30;0.30;;;;;;;;;;5088675;28;20207;-75
2021/03/31 01:39:29;;;;;;;0.93;0.93;;;;;;;;;;5071561;28;20207;-75
2021/03/31 01:41:58;;;;;;;3.92;0.52;;;;;;;;;;5074233;28;20168;-76
2021/03/31 01:44:26;;;;;;;0.10;0.10;;;;;;;;;;5092087;28;20249;-76
2021/03/31 01:46:55;;;;;;;0.47;0.47;;;;;;;;;;5074128;28;20172;-75
2021/03/31 01:49:23;;;;;;;0.70;0.70;;;;;;;;;;5091950;28;20227;-75
2021/03/31 01:51:53;;;;;;;0.52;0.20;;;;;;;;;;5092026;28;20259;-76
2021/03/31 01:54:20;;;;;;;2.40;2.30;;;;;;;;;;5073932;28;20191;-76
2021/03/31 01:56:47;;;;;;;0.30;0.30;;;;;;;;;;5091904;28;20152;-75
2021/03/31 01:59:15;;;;;;;0.45;0.45;;;;;;;;;;5073838;28;20537;-76
2021/03/31 02:01:42;;;;;;;0.00;0.00;;;;;;;;;;5091841;28;20148;-76
2021/03/31 02:04:08;;;;;;;0.00;0.00;;;;;;;;;;5091766;28;20208;-76
2021/03/31 02:06:35;;;;;;;1.67;1.58;;;;;;;;;;5073776;28;20175;-76
2021/03/31 02:09:01;;;;;;;1.58;1.52;;;;;;;;;;5091745;28;20168;-75
2021/03/31 02:11:28;;;;;;;0.10;0.10;;;;;;;;;;5073592;28;20175;-76
2021/03/31 02:13:56;;;;;;;0.80;0.80;;;;;;;;;;5073537;28;20203;-76
2021/03/31 02:16:23;;;;;;;0.13;0.13;;;;;;;;;;5091713;28;20622;-76
2021/03/31 02:18:51;;;;;;;1.13;1.02;;;;;;;;;;5091543;28;20191;-75
2021/03/31 02:21:17;;;;;;;1.08;1.02;;;;;;;;;;5091436;28;20565;-76
2021/03/31 02:23:44;;;;;;;0.13;0.13;;;;;;;;;;5091347;28;20215;-76
2021/03/31 02:26:10;;;;;;;0.20;0.20;;;;;;;;;;5073485;28;20747;-76
2021/03/31 02:28:36;;;;;;;0.25;0.25;;;;;;;;;;5073365;28;20171;-76
2021/03/31 02:31:05;;;;;;;8.02;1.75;;;;;;;;;;5091256;28;20160;-76
2021/03/31 02:33:32;;;;;;;0.32;0.32;;;;;;;;;;5090928;28;20643;-76
2021/03/31 02:35:58;;;;;;;0.47;0.47;;;;;;;;;;5091073;28;20165;-76
2021/03/31 02:38:25;;;;;;;0.20;0.20;;;;;;;;;;5090843;28;20192;-76
2021/03/31 02:40:52;;;;;;;0.17;0.17;;;;;;;;;;5090909;28;20160;-76
2021/03/31 02:43:20;;;;;;;0.00;0.00;;;;;;;;;;5090646;28;20160;-76
2021/03/31 02:45:47;;;;;;;0.10;0.10;;;;;;;;;;5090838;28;20164;-75
2021/03/31 02:48:15;;;;;;;0.32;0.32;;;;;;;;;;5072846;28;20168;-76
2021/03/31 02:50:42;;;;;;;0.10;0.10;;;;;;;;;;5089797;28;20274;-75
2021/03/31 02:53:09;;;;;;;0.40;0.40;;;;;;;;;;5090598;28;20179;-76
2021/03/31 02:55:39;;;;;;;0.93;0.85;;;;;;;;;;5090057;28;20199;-76
2021/03/31 02:58:07;;;;;;;0.52;0.52;;;;;;;;;;5072188;28;20207;-76
2021/03/31 03:00:34;;;;;;;0.35;0.35;;;;;;;;;;5090734;28;20153;-76
2021/03/31 03:03:01;;;;;;;0.35;0.35;;;;;;;;;;5072378;28;20174;-76
2021/03/31 03:05:28;;;;;;;0.10;0.10;;;;;;;;;;5072482;28;20198;-76
2021/03/31 03:07:55;;;;;;;0.82;0.47;;;;;;;;;;5090420;28;20172;-76
2021/03/31 03:10:21;;;;;;;0.55;0.55;;;;;;;;;;5090166;28;20247;-75
2021/03/31 03:12:57;;;;;;;0.13;0.13;;;;;;;;;;5072368;28;20172;-76
2021/03/31 03:15:26;;;;;;;0.10;0.10;;;;;;;;;;5090276;28;20199;-76
2021/03/31 03:17:52;;;;;;;0.43;0.43;;;;;;;;;;5090045;28;20222;-76
2021/03/31 03:20:19;;;;;;;2.10;0.93;;;;;;;;;;5090158;28;20157;-75
2021/03/31 03:22:46;;;;;;;0.10;0.10;;;;;;;;;;5090180;28;20164;-76
2021/03/31 03:25:13;;;;;;;0.90;0.90;;;;;;;;;;5072178;28;20202;-76
2021/03/31 03:27:44;;;;;;;1.30;1.17;;;;;;;;;;5089831;28;20160;-76
2021/03/31 03:30:11;;;;;;;0.17;0.17;;;;;;;;;;5090164;28;20171;-75
2021/03/31 03:32:40;;;;;;;0.77;0.77;;;;;;;;;;5090105;28;20156;-75
2021/03/31 03:35:08;;;;;;;0.20;0.20;;;;;;;;;;5089851;28;20202;-76
2021/03/31 03:37:34;;;;;;;2.17;1.08;;;;;;;;;;5071873;28;20163;-76
2021/03/31 03:40:02;;;;;;;2.15;2.03;;;;;;;;;;5089790;28;20156;-76
2021/03/31 03:42:28;;;;;;;0.15;0.15;;;;;;;;;;5089876;28;20156;-76
2021/03/31 03:44:55;;;;;;;5.72;2.70;;;;;;;;;;5089617;28;20271;-76
2021/03/31 03:47:21;;;;;;;0.32;0.32;;;;;;;;;;5089637;28;20520;-76
2021/03/31 03:49:47;;;;;;;0.57;0.57;;;;;;;;;;5089306;28;20219;-75
2021/03/31 03:52:15;;;;;;;0.10;0.10;;;;;;;;;;5089388;28;20168;-75
2021/03/31 03:54:48;;;;;;;3.00;0.55;;;;;;;;;;5089399;28;20251;-76
2021/03/31 03:57:14;;;;;;;0.10;0.10;;;;;;;;;;5089004;28;20168;-76
2021/03/31 03:59:40;;;;;;;0.20;0.20;;;;;;;;;;5089334;28;20277;-75
2021/03/31 04:02:07;;;;;;;0.73;0.73;;;;;;;;;;5089335;28;20156;-75
2021/03/31 04:04:33;;;;;;;1.25;0.55;;;;;;;;;;5089369;28;20211;-76
2021/03/31 04:06:59;;;;;;;0.20;0.20;;;;;;;;;;5089457;28;20191;-75
2021/03/31 04:09:26;;;;;;;0.15;0.15;;;;;;;;;;5089208;28;20227;-75
2021/03/31 04:11:52;;;;;;;2.60;0.50;;;;;;;;;;5071084;28;20239;-76
2021/03/31 04:14:19;;;;;;;0.10;0.10;;;;;;;;;;5089147;28;20200;-75
2021/03/31 04:16:47;;;;;;;0.30;0.28;;;;;;;;;;5089441;28;20629;-76
2021/03/31 04:19:15;;;;;;;0.73;0.73;;;;;;;;;;5088998;28;20188;-75
2021/03/31 04:21:41;;;;;;;0.30;0.30;;;;;;;;;;5089183;28;20160;-76
2021/03/31 04:24:09;;;;;;;0.40;0.40;;;;;;;;;;5088849;28;20192;-76
2021/03/31 04:26:35;;;;;;;0.35;0.35;;;;;;;;;;5089347;28;20160;-75
2021/03/31 04:29:01;;;;;;;0.13;0.13;;;;;;;;;;5089281;28;20164;-75
2021/03/31 04:31:28;;;;;;;0.13;0.13;;;;;;;;;;5089092;28;20167;-75
2021/03/31 04:33:55;;;;;;;0.35;0.35;;;;;;;;;;5089075;28;20196;-76
2021/03/31 04:36:21;;;;;;;0.50;0.50;;;;;;;;;;5071150;28;20187;-75
2021/03/31 04:38:49;;;;;;;1.00;1.00;;;;;;;;;;5088983;28;20223;-75
2021/03/31 04:41:16;;;;;;;0.32;0.32;;;;;;;;;;5072213;28;20180;-76
2021/03/31 04:43:43;;;;;;;0.10;0.10;;;;;;;;;;5070985;28;20672;-75
2021/03/31 04:46:10;;;;;;;0.30;0.30;;;;;;;;;;5089766;28;20161;-75
2021/03/31 04:48:40;;;;;;;0.60;0.43;;;;;;;;;;5088868;28;20633;-75
2021/03/31 04:51:07;;;;;;;0.10;0.10;;;;;;;;;;5088849;28;20191;-76
2021/03/31 04:53:34;;;;;;;0.55;0.55;;;;;;;;;;5070835;28;20245;-75
2021/03/31 04:56:00;;;;;;;0.63;0.63;;;;;;;;;;5088940;28;20177;-75
2021/03/31 04:58:26;;;;;;;0.75;0.32;;;;;;;;;;5088858;28;20188;-75
2021/03/31 05:00:53;;;;;;;0.10;0.10;;;;;;;;;;5070792;28;20267;-75
2021/03/31 05:03:19;;;;;;;4.10;1.35;;;;;;;;;;5070304;28;20180;-75
2021/03/31 05:05:46;;;;;;;0.60;0.60;;;;;;;;;;5088751;28;20168;-75
2021/03/31 05:08:12;;;;;;;0.98;0.98;;;;;;;;;;5070527;28;20180;-75
2021/03/31 05:10:38;;;;;;;0.15;0.15;;;;;;;;;;5070629;28;20175;-76
2021/03/31 05:13:04;;;;;;;1.38;1.30;;;;;;;;;;5088983;28;20252;-76
2021/03/31 05:15:31;;;;;;;0.20;0.20;;;;;;;;;;5091236;28;20192;-75
2021/03/31 05:17:57;;;;;;;0.57;0.57;;;;;;;;;;5092512;28;20191;-76
2021/03/31 05:20:23;;;;;;;0.00;0.00;;;;;;;;;;5092388;28;20167;-76
2021/03/31 05:22:50;;;;;;;0.85;0.75;;;;;;;;;;5074320;28;20168;-76
2021/03/31 05:25:16;;;;;;;0.03;0.03;;;;;;;;;;5092339;28;20210;-76
2021/03/31 05:27:42;;;;;;;0.90;0.63;;;;;;;;;;5092231;28;20156;-76
2021/03/31 05:30:09;;;;;;;0.80;0.80;;;;;;;;;;5074126;28;20240;-75
2021/03/31 05:32:36;;;;;;;0.88;0.77;;;;;;;;;;5091837;28;20163;-76
2021/03/31 05:35:03;;;;;;;0.47;0.47;;;;;;;;;;5091849;28;20203;-75
2021/03/31 05:37:30;;;;;;;0.28;0.28;;;;;;;;;;5092008;28;20152;-75
2021/03/31 05:39:56;;;;;;;0.52;0.52;;;;;;;;;;5091880;28;20237;-75
2021/03/31 05:42:22;;;;;;;0.17;0.17;;;;;;;;;;5074007;28;20187;-76
2021/03/31 05:44:48;;;;;;;2.83;1.45;;;;;;;;;;5082806;28;20672;-75
2021/03/31 05:47:24;;;;;;;1.02;1.00;;;;;;;;;;5071209;28;20222;-75
2021/03/31 05:49:51;;;;;;;0.43;0.40;;;;;;;;;;5071253;28;20212;-76
2021/03/31 05:52:17;;;;;;;2.55;0.75;;;;;;;;;;5071433;28;20177;-75
2021/03/31 05:54:43;;;;;;;1.95;0.35;;;;;;;;;;5071367;28;20283;-75
2021/03/31 05:57:09;;;;;;;2.05;1.55;;;;;;;;;;5071063;28;20168;-76
2021/03/31 05:59:37;;;;;;;0.55;0.55;;;;;;;;;;5071092;28;20196;-75
2021/03/31 06:02:05;;;;;;;0.20;0.20;;;;;;;;;;5071668;28;20153;-75
2021/03/31 06:04:33;;;;;;;3.35;1.02;;;;;;;;;;5053246;28;20220;-75
2021/03/31 06:06:59;;;;;;;0.60;0.60;;;;;;;;;;5071194;28;20216;-76
2021/03/31 06:09:26;;;;;;;0.70;0.70;;;;;;;;;;5071473;28;20251;-76
2021/03/31 06:11:55;;;;;;;1.02;0.77;;;;;;;;;;5071145;28;20161;-75
2021/03/31 06:14:33;;;;;;;0.40;0.40;;;;;;;;;;5052721;28;20201;-76
2021/03/31 06:17:03;;;;;;;1.85;1.27;;;;;;;;;;5049507;28;20196;-75
2021/03/31 06:19:30;;;;;;;2.30;0.93;;;;;;;;;;5052968;28;20192;-76
2021/03/31 06:22:03;;;;;;;1.08;1.08;;;;;;;;;;5070937;28;20157;-76
2021/03/31 06:24:32;;;;;;;0.57;0.57;;;;;;;;;;5052736;28;20188;-76
2021/03/31 06:26:58;;;;;;;0.65;0.65;;;;;;;;;;5069483;28;20258;-76
2021/03/31 06:29:35;;;;;;;1.08;1.00;;;;;;;;;;5070507;28;20203;-75
2021/03/31 06:32:14;;;;;;;1.02;1.02;;;;;;;;;;5068153;28;20183;-76
2021/03/31 06:34:51;;;;;;;1.85;1.17;;;;;;;;;;5067730;28;20175;-76
2021/03/31 06:37:31;;;;;;;0.68;0.68;;;;;;;;;;5070122;28;20195;-76
2021/03/31 06:39:58;;;;;;;1.33;1.23;;;;;;;;;;5067347;28;20207;-76
2021/03/31 06:42:40;;;;;;;0.38;0.38;;;;;;;;;;5052297;28;20164;-76
2021/03/31 06:45:19;;;;;;;0.28;0.28;;;;;;;;;;5068279;28;20169;-76
2021/03/31 06:47:53;;;;;;;0.85;0.85;;;;;;;;;;5068518;28;20168;-77
2021/03/31 06:50:19;;;;;;;17.42;1.38;;;;;;;;;;5069469;28;20723;-75
2021/03/31 06:52:52;;;;;;;2.22;2.13;;;;;;;;;;5050634;28;20202;-77
2021/03/31 06:55:19;;;;;;;0.93;0.57;;;;;;;;;;5068226;28;20231;-76
2021/03/31 06:57:52;;;;;;;3.83;1.02;;;;;;;;;;5069733;28;20199;-75
2021/03/31 07:00:23;;;;;;;0.98;0.95;;;;;;;;;;5052155;28;20695;-75
2021/03/31 07:02:50;;;;;;;1.73;0.73;;;;;;;;;;5051591;28;20207;-75
2021/03/31 07:05:17;;;;;;;1.15;1.08;;;;;;;;;;5069732;28;20151;-76
2021/03/31 07:07:43;;;;;;;19.98;2.10;;;;;;;;;;5075612;28;20215;-76
2021/03/31 07:10:10;;;;;;;2.67;1.20;;;;;;;;;;5089785;28;20163;-76
2021/03/31 07:12:41;;;;;;;0.73;0.68;;;;;;;;;;5089068;28;20156;-76
2021/03/31 07:15:09;;;;;;;1.25;1.15;;;;;;;;;;5071731;28;20180;-76
2021/03/31 07:17:36;;;;;;;0.40;0.38;;;;;;;;;;5071781;28;20319;-76
2021/03/31 07:20:02;;;;;;;1.20;0.68;;;;;;;;;;5085204;28;20223;-75
2021/03/31 07:22:28;;;;;;;1.60;1.00;;;;;;;;;;5069855;28;20153;-76
2021/03/31 07:24:55;;;;;;;0.50;0.50;;;;;;;;;;5069835;28;20158;-76
2021/03/31 07:27:24;;;;;;;1.05;1.00;;;;;;;;;;5069697;28;20264;-75
2021/03/31 07:30:07;;;;;;;2.53;0.55;;;;;;;;;;5069334;28;20152;-76
2021/03/31 07:32:36;;;;;;;12.65;1.88;;;;;;;;;;5051416;28;20186;-76
2021/03/31 07:35:03;;;;;;;0.30;0.30;;;;;;;;;;5069609;28;20153;-76
2021/03/31 07:37:30;;;;;;;1.05;1.05;;;;;;;;;;5069411;28;20615;-76
2021/03/31 07:40:01;;;;;;;0.30;0.22;;;;;;;;;;5068550;28;20184;-75
2021/03/31 07:42:28;;;;;;;1.27;0.57;;;;;;;;;;5069449;28;20156;-75
2021/03/31 07:44:55;;;;;;;10.13;0.73;;;;;;;;;;5069209;28;20164;-75
2021/03/31 07:47:22;;;;;;;1.55;0.82;;;;;;;;;;5069102;28;20196;-75
2021/03/31 07:49:48;;;;;;;0.10;0.10;;;;;;;;;;5059681;28;20220;-76
2021/03/31 07:52:15;;;;;;;0.63;0.63;;;;;;;;;;5049345;28;20202;-75
2021/03/31 07:54:41;;;;;;;0.77;0.50;;;;;;;;;;5049356;28;20161;-75
2021/03/31 07:57:24;;;;;;;1.20;0.90;;;;;;;;;;5031595;28;20196;-75
2021/03/31 07:59:51;;;;;;;0.45;0.45;;;;;;;;;;5049154;28;20192;-75
2021/03/31 08:02:17;;;;;;;0.43;0.43;;;;;;;;;;5049034;28;20160;-75
2021/03/31 08:04:43;;;;;;;0.30;0.30;;;;;;;;;;5029736;28;20191;-75
2021/03/31 08:07:31;;;;;;;1.45;0.65;;;;;;;;;;5047452;28;20204;-75
2021/03/31 08:10:20;;;;;;;0.15;0.15;;;;;;;;;;5047667;28;20161;-75
2021/03/31 08:12:46;;;;;;;0.60;0.60;;;;;;;;;;5022113;28;20200;-76
2021/03/31 08:15:33;;;;;;;2.05;0.60;;;;;;;;;;5030929;28;20241;-76
2021/03/31 08:17:59;;;;;;;0.30;0.30;;;;;;;;;;5030722;28;20231;-76
2021/03/31 08:20:25;;;;;;;0.65;0.20;;;;;;;;;;5048693;28;20228;-76
2021/03/31 08:22:51;;;;;;;4.57;1.02;;;;;;;;;;5048947;28;20183;-76
2021/03/31 08:25:19;;;;;;;3.75;1.23;;;;;;;;;;5048899;28;20161;-76
2021/03/31 08:27:54;;;;;;;2.72;1.20;;;;;;;;;;5030975;28;20270;-75
2021/03/31 08:30:21;;;;;;;0.40;0.40;;;;;;;;;;5048751;28;20167;-76
2021/03/31 08:32:47;;;;;;;1.85;1.52;;;;;;;;;;5048668;28;20220;-76
2021/03/31 08:35:16;;;;;;;1.88;1.33;;;;;;;;;;5048690;28;20156;-75
2021/03/31 08:37:45;;;;;;;0.40;0.40;;;;;;;;;;5048458;28;20203;-76
2021/03/31 08:40:11;;;;;;;0.60;0.60;;;;;;;;;;5048751;28;20156;-76
2021/03/31 08:42:37;;;;;;;1.98;1.67;;;;;;;;;;5030713;28;20233;-75
2021/03/31 08:45:05;;;;;;;1.38;0.95;;;;;;;;;;5048626;28;20161;-76
2021/03/31 08:47:34;;;;;;;1.08;0.75;;;;;;;;;;5030704;28;20189;-76
2021/03/31 08:50:02;;;;;;;1.25;0.43;;;;;;;;;;5050621;28;20251;-76
2021/03/31 08:52:32;;;;;;;0.82;0.38;;;;;;;;;;5052716;28;20172;-76
2021/03/31 08:54:58;;;;;;;0.82;0.77;;;;;;;;;;5052399;28;20168;-76
2021/03/31 08:57:26;;;;;;;1.65;1.27;;;;;;;;;;5034520;28;20197;-76
2021/03/31 08:59:54;;;;;;;0.38;0.20;;;;;;;;;;5052428;28;20203;-76
2021/03/31 09:02:34;;;;;;;1.13;1.13;;;;;;;;;;5052537;28;20157;-76
2021/03/31 09:05:01;;;;;;;0.85;0.85;;;;;;;;;;5034269;28;20210;-75
2021/03/31 09:07:28;;;;;;;1.75;1.55;;;;;;;;;;5051894;28;20195;-76
2021/03/31 09:09:54;;;;;;;0.32;0.32;;;;;;;;;;5052308;28;20165;-75
2021/03/31 09:12:21;;;;;;;1.20;1.13;;;;;;;;;;5052172;28;20161;-76
2021/03/31 09:14:49;;;;;;;4.75;1.23;;;;;;;;;;5052188;28;20192;-76
2021/03/31 09:17:19;;;;;;;3.85;0.93;;;;;;;;;;5052193;28;20256;-76
2021/03/31 09:19:45;;;;;;;1.55;1.23;;;;;;;;;;5052091;28;20188;-75
2021/03/31 09:22:16;;;;;;;1.25;1.10;;;;;;;;;;5052153;28;20165;-75
2021/03/31 09:24:43;;;;;;;1.48;1.33;;;;;;;;;;5052112;28;20535;-75
2021/03/31 09:27:11;;;;;;;1.27;1.17;;;;;;;;;;5034016;28;20227;-76
2021/03/31 09:29:42;;;;;;;1.17;0.98;;;;;;;;;;5051824;28;20145;-75
2021/03/31 09:32:10;;;;;;;1.75;0.95;;;;;;;;;;5051900;28;20231;-76
2021/03/31 09:34:36;;;;;;;1.42;1.33;;;;;;;;;;5051678;28;20177;-75
2021/03/31 09:37:04;;;;;;;2.38;1.08;;;;;;;;;;5051784;28;20252;-75
2021/03/31 09:39:39;;;;;;;3.03;1.38;;;;;;;;;;5051752;28;20653;-76
2021/03/31 09:42:06;;;;;;;1.05;0.93;;;;;;;;;;5051324;28;20175;-75
2021/03/31 09:44:33;;;;;;;2.05;1.23;;;;;;;;;;5051466;28;20160;-75
2021/03/31 09:47:01;;;;;;;1.35;0.98;;;;;;;;;;5033714;28;20268;-75
2021/03/31 09:49:28;;;;;;;1.83;1.42;;;;;;;;;;5051139;28;20225;-75
2021/03/31 09:51:54;;;;;;;1.80;1.52;;;;;;;;;;5033562;28;20177;-76
2021/03/31 09:54:25;;;;;;;2.25;1.45;;;;;;;;;;5051422;28;20168;-75
2021/03/31 09:56:51;;;;;;;0.75;0.70;;;;;;;;;;5051333;28;20200;-76
2021/03/31 09:59:18;;;;;;;2.72;1.50;;;;;;;;;;5033777;28;20239;-77
2021/03/31 10:01:44;;;;;;;1.75;1.35;;;;;;;;;;5033625;28;20236;-76
2021/03/31 10:04:10;;;;;;;3.08;1.17;;;;;;;;;;5033663;28;20636;-76
2021/03/31 10:06:37;;;;;;;2.05;1.52;;;;;;;;;;5051115;28;20196;-76
2021/03/31 10:09:13;;;;;;;2.08;1.48;;;;;;;;;;5033000;28;20189;-76
2021/03/31 10:11:41;;;;;;;1.52;1.42;;;;;;;;;;5051209;28;20171;-76
2021/03/31 10:14:17;;;;;;;0.95;0.85;;;;;;;;;;5051255;28;20157;-76
2021/03/31 10:16:44;;;;;;;2.45;1.48;;;;;;;;;;5050986;28;20205;-76
2021/03/31 10:19:10;;;;;;;1.10;0.80;;;;;;;;;;5050892;28;20192;-76
2021/03/31 10:21:37;;;;;;;1.40;1.05;;;;;;;;;;5033153;28;20184;-75
2021/03/31 10:24:05;;;;;;;1.55;0.77;;;;;;;;;;5033108;28;20200;-76
2021/03/31 10:26:32;;;;;;;1.50;1.33;;;;;;;;;;5032423;28;20203;-75
2021/03/31 10:28:59;;;;;;;5.32;1.63;;;;;;;;;;5032651;28;20180;-76
2021/03/31 10:31:31;;;;;;;0.88;0.88;;;;;;;;;;5050819;28;20244;-75
2021/03/31 10:33:58;;;;;;;1.00;0.93;;;;;;;;;;5033015;28;20199;-77
2021/03/31 10:36:53;;;;;;;1.45;1.02;;;;;;;;;;5050611;28;20165;-77
2021/03/31 10:49:58;;;;;;;1.25;1.08;;;;;;;;;;5050415;28;20236;-77
2021/03/31 10:52:27;;;;;;;1.90;1.60;;;;;;;;;;5050492;28;20608;-76
2021/03/31 10:54:55;;;;;;;1.33;0.77;;;;;;;;;;5050302;28;20153;-76
2021/03/31 10:57:21;;;;;;;3.90;1.42;;;;;;;;;;5032266;28;20268;-76
2021/03/31 10:59:47;;;;;;;1.67;1.48;;;;;;;;;;5050362;28;20193;-76
2021/03/31 11:02:14;;;;;;;2.65;1.30;;;;;;;;;;5050009;28;20225;-76
2021/03/31 11:04:40;;;;;;;2.85;1.23;;;;;;;;;;5049687;28;20161;-74
2021/03/31 11:07:06;;;;;;;0.85;0.80;;;;;;;;;;5050102;28;20199;-75
2021/03/31 11:09:32;;;;;;;13.95;1.65;;;;;;;;;;5050065;28;20161;-76
2021/03/31 11:11:58;;;;;;;1.83;1.55;;;;;;;;;;5049491;28;20168;-76
2021/03/31 11:14:26;;;;;;;1.67;1.30;;;;;;;;;;5032206;28;20181;-76
2021/03/31 11:27:34;;;;;;;2.83;1.10;;;;;;;;;;5048462;28;20222;-76
2021/03/31 11:30:07;;;;;;;3.95;1.30;;;;;;;;;;5030418;28;20219;-76
2021/03/31 11:32:33;;;;;;;0.98;0.90;;;;;;;;;;5033411;28;20220;-77
2021/03/31 11:34:59;;;;;;;1.45;1.17;;;;;;;;;;5049416;28;20172;-77
2021/03/31 11:37:26;;;;;;;2.13;1.10;;;;;;;;;;5049238;28;20247;-76
2021/03/31 11:39:52;;;;;;;1.30;0.98;;;;;;;;;;5049076;28;20224;-76
2021/03/31 11:42:18;;;;;;;1.02;1.02;;;;;;;;;;5048814;28;20267;-77
2021/03/31 11:44:44;;;;;;;0.85;0.85;;;;;;;;;;5046145;28;20161;-76
2021/03/31 11:47:12;;;;;;;3.25;1.45;;;;;;;;;;5031009;28;20227;-76
2021/03/31 11:49:38;;;;;;;4.45;1.23;;;;;;;;;;5031195;28;20673;-76
2021/03/31 11:52:06;;;;;;;2.75;1.20;;;;;;;;;;5049232;28;20185;-76
2021/03/31 11:54:33;;;;;;;2.13;1.42;;;;;;;;;;5049234;28;20161;-75
2021/03/31 11:57:00;;;;;;;2.60;1.85;;;;;;;;;;5049181;28;20243;-75
2021/03/31 11:59:26;;;;;;;1.30;1.20;;;;;;;;;;5048999;28;20246;-75
2021/03/31 12:01:52;;;;;;;11.27;1.25;;;;;;;;;;5048980;28;20177;-75
2021/03/31 12:04:18;;;;;;;2.53;1.30;;;;;;;;;;5031456;28;20176;-75
2021/03/31 12:06:45;;;;;;;0.93;0.88;;;;;;;;;;5048903;28;20252;-74
2021/03/31 12:09:12;;;;;;;2.92;1.98;;;;;;;;;;5031279;28;20263;-76
2021/03/31 12:11:38;;;;;;;1.05;1.00;;;;;;;;;;5031297;28;20173;-75
2021/03/31 12:14:05;;;;;;;0.95;0.90;;;;;;;;;;5031142;28;20180;-74
2021/03/31 12:16:31;;;;;;;1.48;0.65;;;;;;;;;;5048857;28;20229;-75
2021/03/31 12:18:57;;;;;;;6.15;1.60;;;;;;;;;;5048906;28;20200;-74
2021/03/31 12:21:23;;;;;;;0.98;0.95;;;;;;;;;;5030993;28;20173;-74
2021/03/31 12:23:49;;;;;;;0.70;0.70;;;;;;;;;;5048991;28;20181;-74
2021/03/31 12:26:16;;;;;;;2.70;1.25;;;;;;;;;;5048740;28;20172;-74
2021/03/31 12:28:55;;;;;;;0.98;0.70;;;;;;;;;;5048641;28;20202;-75
2021/03/31 12:31:21;;;;;;;1.55;0.85;;;;;;;;;;5030622;28;20176;-75
2021/03/31 12:33:47;;;;;;;1.38;1.02;;;;;;;;;;5048510;28;20157;-74
2021/03/31 12:36:14;;;;;;;0.77;0.77;;;;;;;;;;5030755;28;20268;-75
2021/03/31 12:38:40;;;;;;;1.67;1.23;;;;;;;;;;5048710;28;20652;-74
2021/03/31 12:41:24;;;;;;;1.45;1.27;;;;;;;;;;5048841;28;20253;-75
2021/03/31 12:43:50;;;;;;;3.42;1.00;;;;;;;;;;5048443;28;20164;-73
2021/03/31 12:46:17;;;;;;;1.40;0.75;;;;;;;;;;5030946;28;20177;-74
2021/03/31 12:48:43;;;;;;;3.20;0.90;;;;;;;;;;5031021;28;20180;-75
2021/03/31 12:51:12;;;;;;;3.17;1.02;;;;;;;;;;5068568;28;20194;-76
2021/03/31 12:54:03;;;;;;;0.50;0.50;;;;;;;;;;5050581;28;20239;-75
2021/03/31 12:56:26;;;;;;;16.55;1.13;;;;;;;;;;5067776;28;20192;-74
2021/03/31 12:58:52;;;;;;;0.82;0.75;;;;;;;;;;5068379;28;20195;-75
2021/03/31 13:01:28;;;;;;;1.05;0.85;;;;;;;;;;5068391;28;20164;-76
2021/03/31 13:03:54;;;;;;;1.50;1.40;;;;;;;;;;5068410;28;20209;-75
2021/03/31 13:06:23;;;;;;;0.35;0.35;;;;;;;;;;5050196;28;20183;-75
2021/03/31 13:08:51;;;;;;;10.52;0.73;;;;;;;;;;5068269;28;20259;-75
2021/03/31 13:11:18;;;;;;;1.17;0.70;;;;;;;;;;5050605;28;20244;-75
2021/03/31 13:32:32;;;;;;;0.73;0.73;;;;;;;;;;5068279;28;20238;-76
2021/03/31 13:35:04;;;;;;;0.65;0.65;;;;;;;;;;5068768;28;20170;-75
2021/03/31 13:37:37;;;;;;;2.17;1.02;;;;;;;;;;5071745;28;20214;-75
2021/03/31 13:40:05;;;;;;;4.72;2.67;;;;;;;;;;5053611;28;20211;-75
2021/03/31 13:42:31;;;;;;;1.45;1.23;;;;;;;;;;5071898;28;20172;-75
2021/03/31 13:44:57;;;;;;;1.17;1.05;;;;;;;;;;5071699;28;20611;-75
2021/03/31 13:47:27;;;;;;;0.55;0.55;;;;;;;;;;5071807;28;20157;-76
2021/03/31 13:49:59;;;;;;;2.00;1.42;;;;;;;;;;5071749;28;20220;-75
2021/03/31 13:52:28;;;;;;;1.48;1.35;;;;;;;;;;5053837;28;20168;-75
2021/03/31 13:54:57;;;;;;;1.95;0.77;;;;;;;;;;5053437;28;20218;-76
2021/03/31 13:57:30;;;;;;;0.57;0.57;;;;;;;;;;5071738;28;20192;-76
2021/03/31 13:59:56;;;;;;;3.92;2.40;;;;;;;;;;5071418;28;20188;-75
2021/03/31 14:02:23;;;;;;;1.20;0.95;;;;;;;;;;5071554;28;20618;-76
2021/03/31 14:04:50;;;;;;;2.25;0.80;;;;;;;;;;5053567;28;20168;-76
2021/03/31 14:07:17;;;;;;;1.65;0.43;;;;;;;;;;5053528;28;20184;-76
2021/03/31 14:09:43;;;;;;;0.73;0.55;;;;;;;;;;5071095;28;20168;-75
2021/03/31 14:12:10;;;;;;;2.58;1.10;;;;;;;;;;5071324;28;20160;-76
2021/03/31 14:14:36;;;;;;;1.55;1.45;;;;;;;;;;5071231;28;20218;-75
2021/03/31 14:19:36;;;;;;;0.47;0.47;;;;;;;;;;5071848;28;20203;-76
2021/03/31 14:22:03;;;;;;;1.90;1.45;;;;;;;;;;5071196;28;20211;-76
2021/03/31 14:24:29;;;;;;;1.17;1.17;;;;;;;;;;5071171;28;20184;-75
2021/03/31 14:26:55;;;;;;;0.55;0.55;;;;;;;;;;5071112;28;20184;-76
2021/03/31 14:29:21;;;;;;;3.53;1.13;;;;;;;;;;5071101;28;20175;-75
2021/03/31 14:31:48;;;;;;;2.80;1.20;;;;;;;;;;5070834;28;20203;-75
2021/03/31 14:34:14;;;;;;;0.70;0.65;;;;;;;;;;5070873;28;20640;-75
2021/03/31 14:36:40;;;;;;;0.93;0.65;;;;;;;;;;5070852;28;20165;-76
2021/03/31 14:39:07;;;;;;;3.60;0.32;;;;;;;;;;5052782;28;20291;-76
2021/03/31 14:41:34;;;;;;;4.30;1.85;;;;;;;;;;5052839;28;20202;-76
2021/03/31 14:44:01;;;;;;;1.80;1.05;;;;;;;;;;5070714;28;20160;-76
2021/03/31 14:46:27;;;;;;;0.88;0.50;;;;;;;;;;5070143;28;20165;-76
2021/03/31 14:48:54;;;;;;;7.85;1.80;;;;;;;;;;5052381;28;20188;-77
2021/03/31 14:51:25;;;;;;;3.53;2.25;;;;;;;;;;5070437;28;20210;-76
2021/03/31 14:57:04;;;;;;;4.15;0.95;;;;;;;;;;5070479;28;20214;-77
2021/03/31 14:59:37;;;;;;;0.85;0.80;;;;;;;;;;5070389;28;20220;-76
2021/03/31 15:02:04;;;;;;;1.20;0.40;;;;;;;;;;5070303;28;20152;-77
2021/03/31 15:04:30;;;;;;;0.65;0.65;;;;;;;;;;5052007;28;20177;-76
2021/03/31 15:06:57;;;;;;;2.75;0.95;;;;;;;;;;5070043;28;20226;-77
2021/03/31 15:09:23;;;;;;;0.80;0.80;;;;;;;;;;5070290;28;20598;-76
2021/03/31 15:11:49;;;;;;;1.98;1.40;;;;;;;;;;5070056;28;20220;-76
2021/03/31 15:14:15;;;;;;;0.45;0.45;;;;;;;;;;5070123;28;20161;-76
2021/03/31 15:16:41;;;;;;;1.10;1.00;;;;;;;;;;5052147;28;20259;-77
2021/03/31 15:19:12;;;;;;;3.50;1.38;;;;;;;;;;5050212;28;20215;-76
2021/03/31 15:21:57;;;;;;;6.28;1.52;;;;;;;;;;5042219;28;20574;-76
2021/03/31 15:24:24;;;;;;;6.05;1.10;;;;;;;;;;5064348;28;20175;-76
2021/03/31 15:26:51;;;;;;;1.02;0.68;;;;;;;;;;5069865;28;20153;-76
2021/03/31 15:29:17;;;;;;;0.47;0.38;;;;;;;;;;5069791;28;20177;-77
2021/03/31 15:31:44;;;;;;;0.68;0.57;;;;;;;;;;5051773;28;20260;-76
2021/03/31 15:34:11;;;;;;;1.95;1.25;;;;;;;;;;5052138;28;20196;-76
2021/03/31 15:36:38;;;;;;;7.63;0.85;;;;;;;;;;5051891;28;20175;-76